Newfoundland, Kentucky
Current Conditions -  °F | °C
As of 4:10 AM on Wednesday 28 Jan 2015 (Local Time) from KSYM Reporting Station
Clear Clear  
Wind Chill: 16°   Ceiling: Unl
Heat Index: 16°   Visibility: 10mi
Dew Point: 12°   Wind: 0mph
Humidity: 86%   Direction: NA
Pressure: 30.29"   Gusts: NA
Location:  38.1397°N, 83.158°W
Report Text: KSYM 280910Z AUTO 00000KT 10SM CLR M09/M11 A3029 RMK AO2
Loading
Personal Weather Stations






























Interactive Weather Map New forecast layout! Learn more

10-Day Weather Forecast

Advertisements
Track Severe Weather on mobile